sensor_id;sensor_type;location;lat;lon;timestamp;P1;durP1;ratioP1;P2;durP2;ratioP2
42030;SDS011;27709;52.036;5.906;2022-11-20T00:00:09;18.85;;;10.20;;
42030;SDS011;27709;52.036;5.906;2022-11-20T00:02:35;19.02;;;10.02;;
42030;SDS011;27709;52.036;5.906;2022-11-20T00:05:00;19.73;;;9.77;;
42030;SDS011;27709;52.036;5.906;2022-11-20T00:07:25;20.80;;;10.77;;
42030;SDS011;27709;52.036;5.906;2022-11-20T00:09:51;20.20;;;10.02;;
42030;SDS011;27709;52.036;5.906;2022-11-20T00:12:16;22.73;;;10.70;;
42030;SDS011;27709;52.036;5.906;2022-11-20T00:14:42;20.00;;;10.20;;
42030;SDS011;27709;52.036;5.906;2022-11-20T00:17:07;19.17;;;9.18;;
42030;SDS011;27709;52.036;5.906;2022-11-20T00:19:33;17.70;;;9.75;;
42030;SDS011;27709;52.036;5.906;2022-11-20T00:21:58;20.27;;;10.70;;
42030;SDS011;27709;52.036;5.906;2022-11-20T00:24:24;18.35;;;9.95;;
42030;SDS011;27709;52.036;5.906;2022-11-20T00:26:49;19.52;;;10.68;;
42030;SDS011;27709;52.036;5.906;2022-11-20T00:29:15;17.85;;;9.65;;
42030;SDS011;27709;52.036;5.906;2022-11-20T00:31:40;16.92;;;9.32;;
42030;SDS011;27709;52.036;5.906;2022-11-20T00:34:06;21.77;;;11.38;;
42030;SDS011;27709;52.036;5.906;2022-11-20T00:36:32;21.23;;;10.45;;
42030;SDS011;27709;52.036;5.906;2022-11-20T00:38:59;22.80;;;10.20;;
42030;SDS011;27709;52.036;5.906;2022-11-20T00:41:25;16.52;;;9.05;;
42030;SDS011;27709;52.036;5.906;2022-11-20T00:43:53;18.42;;;9.40;;
42030;SDS011;27709;52.036;5.906;2022-11-20T00:46:21;18.30;;;9.18;;
42030;SDS011;27709;52.036;5.906;2022-11-20T00:48:47;18.75;;;10.02;;
42030;SDS011;27709;52.036;5.906;2022-11-20T00:51:14;17.48;;;10.05;;
42030;SDS011;27709;52.036;5.906;2022-11-20T00:53:41;18.52;;;9.35;;
42030;SDS011;27709;52.036;5.906;2022-11-20T00:56:09;19.35;;;9.20;;
42030;SDS011;27709;52.036;5.906;2022-11-20T00:58:37;19.05;;;9.93;;
42030;SDS011;27709;52.036;5.906;2022-11-20T01:01:07;16.58;;;8.52;;
42030;SDS011;27709;52.036;5.906;2022-11-20T01:03:38;17.35;;;8.73;;
42030;SDS011;27709;52.036;5.906;2022-11-20T01:06:06;19.05;;;9.30;;
42030;SDS011;27709;52.036;5.906;2022-11-20T01:08:37;20.25;;;9.65;;
42030;SDS011;27709;52.036;5.906;2022-11-20T01:11:04;16.77;;;9.40;;
42030;SDS011;27709;52.036;5.906;2022-11-20T01:13:31;17.63;;;9.48;;
42030;SDS011;27709;52.036;5.906;2022-11-20T01:18:33;18.73;;;9.40;;
42030;SDS011;27709;52.036;5.906;2022-11-20T01:21:00;16.80;;;9.15;;
42030;SDS011;27709;52.036;5.906;2022-11-20T01:23:34;18.27;;;9.48;;
42030;SDS011;27709;52.036;5.906;2022-11-20T01:26:02;20.23;;;9.38;;
42030;SDS011;27709;52.036;5.906;2022-11-20T01:28:29;17.95;;;9.75;;
42030;SDS011;27709;52.036;5.906;2022-11-20T01:30:55;15.55;;;8.52;;
42030;SDS011;27709;52.036;5.906;2022-11-20T01:33:20;16.48;;;9.25;;
42030;SDS011;27709;52.036;5.906;2022-11-20T01:35:46;18.27;;;8.98;;
42030;SDS011;27709;52.036;5.906;2022-11-20T01:38:11;17.85;;;8.80;;
42030;SDS011;27709;52.036;5.906;2022-11-20T01:40:37;19.05;;;10.38;;
42030;SDS011;27709;52.036;5.906;2022-11-20T01:51:12;18.70;;;9.30;;
42030;SDS011;27709;52.036;5.906;2022-11-20T01:53:42;22.05;;;9.85;;
42030;SDS011;27709;52.036;5.906;2022-11-20T01:56:09;18.67;;;9.77;;
42030;SDS011;27709;52.036;5.906;2022-11-20T01:58:37;16.38;;;9.50;;
42030;SDS011;27709;52.036;5.906;2022-11-20T02:01:07;19.23;;;10.00;;
42030;SDS011;27709;52.036;5.906;2022-11-20T02:03:33;20.70;;;9.70;;
42030;SDS011;27709;52.036;5.906;2022-11-20T02:06:17;19.70;;;9.65;;
42030;SDS011;27709;52.036;5.906;2022-11-20T02:08:47;18.40;;;9.18;;
42030;SDS011;27709;52.036;5.906;2022-11-20T02:11:13;20.08;;;9.93;;
42030;SDS011;27709;52.036;5.906;2022-11-20T02:13:38;21.05;;;9.93;;
42030;SDS011;27709;52.036;5.906;2022-11-20T02:16:15;18.60;;;9.50;;
42030;SDS011;27709;52.036;5.906;2022-11-20T02:18:50;19.77;;;9.13;;
42030;SDS011;27709;52.036;5.906;2022-11-20T02:24:05;18.27;;;9.60;;
42030;SDS011;27709;52.036;5.906;2022-11-20T02:26:36;18.48;;;9.93;;
42030;SDS011;27709;52.036;5.906;2022-11-20T02:29:09;17.95;;;9.70;;
42030;SDS011;27709;52.036;5.906;2022-11-20T02:31:36;21.83;;;10.38;;
42030;SDS011;27709;52.036;5.906;2022-11-20T02:34:06;18.88;;;10.02;;
42030;SDS011;27709;52.036;5.906;2022-11-20T02:36:32;19.00;;;9.55;;
42030;SDS011;27709;52.036;5.906;2022-11-20T02:39:00;18.25;;;9.80;;
42030;SDS011;27709;52.036;5.906;2022-11-20T02:41:32;18.83;;;9.55;;
42030;SDS011;27709;52.036;5.906;2022-11-20T02:46:26;19.60;;;9.95;;
42030;SDS011;27709;52.036;5.906;2022-11-20T02:48:51;19.88;;;10.10;;
42030;SDS011;27709;52.036;5.906;2022-11-20T02:51:17;21.33;;;10.20;;
42030;SDS011;27709;52.036;5.906;2022-11-20T02:53:42;20.90;;;10.07;;
42030;SDS011;27709;52.036;5.906;2022-11-20T02:56:08;20.13;;;9.73;;
42030;SDS011;27709;52.036;5.906;2022-11-20T02:58:34;21.75;;;10.70;;
42030;SDS011;27709;52.036;5.906;2022-11-20T03:00:59;19.85;;;9.70;;
42030;SDS011;27709;52.036;5.906;2022-11-20T03:03:25;18.80;;;10.20;;
42030;SDS011;27709;52.036;5.906;2022-11-20T03:05:50;19.23;;;9.57;;
42030;SDS011;27709;52.036;5.906;2022-11-20T03:08:16;18.98;;;9.93;;
42030;SDS011;27709;52.036;5.906;2022-11-20T03:10:41;20.05;;;10.35;;
42030;SDS011;27709;52.036;5.906;2022-11-20T03:13:07;22.25;;;11.15;;
42030;SDS011;27709;52.036;5.906;2022-11-20T03:15:32;18.85;;;10.05;;
42030;SDS011;27709;52.036;5.906;2022-11-20T03:17:58;19.30;;;9.32;;
42030;SDS011;27709;52.036;5.906;2022-11-20T03:20:23;18.80;;;9.30;;
42030;SDS011;27709;52.036;5.906;2022-11-20T03:22:49;20.42;;;10.02;;
42030;SDS011;27709;52.036;5.906;2022-11-20T03:25:15;19.13;;;9.88;;
42030;SDS011;27709;52.036;5.906;2022-11-20T03:27:40;19.67;;;10.20;;
42030;SDS011;27709;52.036;5.906;2022-11-20T03:30:06;24.05;;;11.55;;
42030;SDS011;27709;52.036;5.906;2022-11-20T03:32:32;20.88;;;10.35;;
42030;SDS011;27709;52.036;5.906;2022-11-20T03:34:57;20.10;;;10.23;;
42030;SDS011;27709;52.036;5.906;2022-11-20T03:37:23;18.73;;;10.38;;
42030;SDS011;27709;52.036;5.906;2022-11-20T03:39:48;19.38;;;10.57;;
42030;SDS011;27709;52.036;5.906;2022-11-20T03:42:14;20.55;;;9.88;;
42030;SDS011;27709;52.036;5.906;2022-11-20T03:44:58;21.10;;;9.95;;
42030;SDS011;27709;52.036;5.906;2022-11-20T03:47:23;18.92;;;9.75;;
42030;SDS011;27709;52.036;5.906;2022-11-20T03:49:49;20.42;;;10.50;;
42030;SDS011;27709;52.036;5.906;2022-11-20T03:52:14;19.15;;;9.57;;
42030;SDS011;27709;52.036;5.906;2022-11-20T03:54:40;20.35;;;9.77;;
42030;SDS011;27709;52.036;5.906;2022-11-20T03:57:05;21.20;;;9.60;;
42030;SDS011;27709;52.036;5.906;2022-11-20T03:59:31;21.27;;;10.18;;
42030;SDS011;27709;52.036;5.906;2022-11-20T04:01:56;18.55;;;9.38;;
42030;SDS011;27709;52.036;5.906;2022-11-20T04:04:22;18.35;;;9.55;;
42030;SDS011;27709;52.036;5.906;2022-11-20T04:06:47;18.65;;;9.45;;
42030;SDS011;27709;52.036;5.906;2022-11-20T04:09:13;19.42;;;9.95;;
42030;SDS011;27709;52.036;5.906;2022-11-20T04:11:39;17.30;;;9.30;;
42030;SDS011;27709;52.036;5.906;2022-11-20T04:14:05;16.67;;;9.15;;
42030;SDS011;27709;52.036;5.906;2022-11-20T04:16:36;19.98;;;10.38;;
42030;SDS011;27709;52.036;5.906;2022-11-20T04:19:02;17.58;;;9.63;;
42030;SDS011;27709;52.036;5.906;2022-11-20T04:21:29;20.30;;;9.85;;
42030;SDS011;27709;52.036;5.906;2022-11-20T04:23:56;17.10;;;9.32;;
42030;SDS011;27709;52.036;5.906;2022-11-20T04:26:25;17.45;;;9.05;;
42030;SDS011;27709;52.036;5.906;2022-11-20T04:28:52;18.13;;;9.50;;
42030;SDS011;27709;52.036;5.906;2022-11-20T04:31:19;19.08;;;9.38;;
42030;SDS011;27709;52.036;5.906;2022-11-20T04:33:46;18.70;;;9.77;;
42030;SDS011;27709;52.036;5.906;2022-11-20T04:36:13;21.13;;;10.60;;
42030;SDS011;27709;52.036;5.906;2022-11-20T04:38:39;19.17;;;10.25;;
42030;SDS011;27709;52.036;5.906;2022-11-20T04:41:06;19.83;;;9.52;;
42030;SDS011;27709;52.036;5.906;2022-11-20T04:43:32;17.00;;;8.95;;
42030;SDS011;27709;52.036;5.906;2022-11-20T04:45:59;19.45;;;10.05;;
42030;SDS011;27709;52.036;5.906;2022-11-20T04:48:26;18.75;;;9.35;;
42030;SDS011;27709;52.036;5.906;2022-11-20T04:50:52;18.73;;;9.73;;
42030;SDS011;27709;52.036;5.906;2022-11-20T04:53:18;18.70;;;9.70;;
42030;SDS011;27709;52.036;5.906;2022-11-20T04:55:45;21.10;;;9.65;;
42030;SDS011;27709;52.036;5.906;2022-11-20T04:58:10;18.65;;;10.00;;
42030;SDS011;27709;52.036;5.906;2022-11-20T05:00:36;18.73;;;9.60;;
42030;SDS011;27709;52.036;5.906;2022-11-20T05:03:02;19.02;;;10.02;;
42030;SDS011;27709;52.036;5.906;2022-11-20T05:05:28;21.17;;;10.23;;
42030;SDS011;27709;52.036;5.906;2022-11-20T05:07:55;19.92;;;10.05;;
42030;SDS011;27709;52.036;5.906;2022-11-20T05:10:22;20.30;;;10.05;;
42030;SDS011;27709;52.036;5.906;2022-11-20T05:12:48;19.60;;;10.00;;
42030;SDS011;27709;52.036;5.906;2022-11-20T05:15:14;19.15;;;10.25;;
42030;SDS011;27709;52.036;5.906;2022-11-20T05:17:39;20.48;;;9.88;;
42030;SDS011;27709;52.036;5.906;2022-11-20T05:20:05;17.80;;;9.68;;
42030;SDS011;27709;52.036;5.906;2022-11-20T05:22:31;18.98;;;9.48;;
42030;SDS011;27709;52.036;5.906;2022-11-20T05:24:56;17.77;;;9.23;;
42030;SDS011;27709;52.036;5.906;2022-11-20T05:27:22;19.92;;;9.63;;
42030;SDS011;27709;52.036;5.906;2022-11-20T05:29:47;17.08;;;9.00;;
42030;SDS011;27709;52.036;5.906;2022-11-20T05:32:13;16.92;;;9.13;;
42030;SDS011;27709;52.036;5.906;2022-11-20T05:34:38;21.05;;;10.40;;
42030;SDS011;27709;52.036;5.906;2022-11-20T05:37:04;21.33;;;10.15;;
42030;SDS011;27709;52.036;5.906;2022-11-20T05:39:29;18.42;;;9.88;;
42030;SDS011;27709;52.036;5.906;2022-11-20T05:41:55;21.05;;;10.30;;
42030;SDS011;27709;52.036;5.906;2022-11-20T05:44:39;19.20;;;10.15;;
42030;SDS011;27709;52.036;5.906;2022-11-20T05:47:05;20.00;;;10.15;;
42030;SDS011;27709;52.036;5.906;2022-11-20T05:49:31;20.13;;;10.15;;
42030;SDS011;27709;52.036;5.906;2022-11-20T05:51:56;17.20;;;9.93;;
42030;SDS011;27709;52.036;5.906;2022-11-20T05:54:22;18.52;;;9.75;;
42030;SDS011;27709;52.036;5.906;2022-11-20T05:56:47;17.73;;;9.68;;
42030;SDS011;27709;52.036;5.906;2022-11-20T05:59:13;19.88;;;9.90;;
42030;SDS011;27709;52.036;5.906;2022-11-20T06:01:38;20.33;;;10.52;;
42030;SDS011;27709;52.036;5.906;2022-11-20T06:04:04;21.15;;;10.35;;
42030;SDS011;27709;52.036;5.906;2022-11-20T06:06:29;20.60;;;10.30;;
42030;SDS011;27709;52.036;5.906;2022-11-20T06:08:55;20.95;;;9.32;;
42030;SDS011;27709;52.036;5.906;2022-11-20T06:11:20;19.42;;;10.02;;
42030;SDS011;27709;52.036;5.906;2022-11-20T06:13:46;21.02;;;10.52;;
42030;SDS011;27709;52.036;5.906;2022-11-20T06:16:13;18.63;;;9.57;;
42030;SDS011;27709;52.036;5.906;2022-11-20T06:18:42;18.67;;;9.95;;
42030;SDS011;27709;52.036;5.906;2022-11-20T06:21:08;20.63;;;10.85;;
42030;SDS011;27709;52.036;5.906;2022-11-20T06:23:38;21.63;;;10.13;;
42030;SDS011;27709;52.036;5.906;2022-11-20T06:26:08;18.98;;;9.18;;
42030;SDS011;27709;52.036;5.906;2022-11-20T06:28:36;22.05;;;10.45;;
42030;SDS011;27709;52.036;5.906;2022-11-20T06:31:02;20.98;;;10.52;;
42030;SDS011;27709;52.036;5.906;2022-11-20T06:33:28;19.10;;;10.05;;
42030;SDS011;27709;52.036;5.906;2022-11-20T06:35:58;19.95;;;10.00;;
42030;SDS011;27709;52.036;5.906;2022-11-20T06:38:25;19.13;;;9.23;;
42030;SDS011;27709;52.036;5.906;2022-11-20T06:40:51;20.30;;;10.25;;
42030;SDS011;27709;52.036;5.906;2022-11-20T06:43:17;21.38;;;10.20;;
42030;SDS011;27709;52.036;5.906;2022-11-20T06:45:42;23.00;;;11.48;;
42030;SDS011;27709;52.036;5.906;2022-11-20T06:48:08;19.73;;;10.18;;
42030;SDS011;27709;52.036;5.906;2022-11-20T06:50:35;20.65;;;10.23;;
42030;SDS011;27709;52.036;5.906;2022-11-20T06:53:02;24.05;;;11.13;;
42030;SDS011;27709;52.036;5.906;2022-11-20T06:55:28;21.70;;;10.55;;
42030;SDS011;27709;52.036;5.906;2022-11-20T06:57:55;20.15;;;10.48;;
42030;SDS011;27709;52.036;5.906;2022-11-20T07:00:20;19.73;;;9.98;;
42030;SDS011;27709;52.036;5.906;2022-11-20T07:02:46;22.20;;;10.88;;
42030;SDS011;27709;52.036;5.906;2022-11-20T07:05:11;21.00;;;10.80;;
42030;SDS011;27709;52.036;5.906;2022-11-20T07:07:37;20.35;;;10.23;;
42030;SDS011;27709;52.036;5.906;2022-11-20T07:10:03;21.80;;;10.65;;
42030;SDS011;27709;52.036;5.906;2022-11-20T07:12:29;24.50;;;12.20;;
42030;SDS011;27709;52.036;5.906;2022-11-20T07:14:54;23.65;;;11.57;;
42030;SDS011;27709;52.036;5.906;2022-11-20T07:17:20;27.50;;;11.93;;
42030;SDS011;27709;52.036;5.906;2022-11-20T07:19:45;21.52;;;11.48;;
42030;SDS011;27709;52.036;5.906;2022-11-20T07:22:11;20.08;;;10.20;;
42030;SDS011;27709;52.036;5.906;2022-11-20T07:24:36;23.98;;;11.15;;
42030;SDS011;27709;52.036;5.906;2022-11-20T07:27:02;21.95;;;11.65;;
42030;SDS011;27709;52.036;5.906;2022-11-20T07:29:28;21.52;;;11.48;;
42030;SDS011;27709;52.036;5.906;2022-11-20T07:31:54;19.98;;;10.40;;
42030;SDS011;27709;52.036;5.906;2022-11-20T07:34:21;20.33;;;10.88;;
42030;SDS011;27709;52.036;5.906;2022-11-20T07:36:46;23.23;;;11.13;;
42030;SDS011;27709;52.036;5.906;2022-11-20T07:39:12;21.33;;;10.95;;
42030;SDS011;27709;52.036;5.906;2022-11-20T07:41:37;19.83;;;11.25;;
42030;SDS011;27709;52.036;5.906;2022-11-20T07:44:03;21.77;;;11.73;;
42030;SDS011;27709;52.036;5.906;2022-11-20T07:46:28;22.45;;;12.40;;
42030;SDS011;27709;52.036;5.906;2022-11-20T07:48:54;21.38;;;10.90;;
42030;SDS011;27709;52.036;5.906;2022-11-20T07:51:19;20.23;;;11.80;;
42030;SDS011;27709;52.036;5.906;2022-11-20T07:53:45;20.30;;;11.13;;
42030;SDS011;27709;52.036;5.906;2022-11-20T07:56:10;22.70;;;11.43;;
42030;SDS011;27709;52.036;5.906;2022-11-20T07:58:36;20.27;;;11.07;;
42030;SDS011;27709;52.036;5.906;2022-11-20T08:01:05;23.90;;;11.93;;
42030;SDS011;27709;52.036;5.906;2022-11-20T08:03:31;21.48;;;11.52;;
42030;SDS011;27709;52.036;5.906;2022-11-20T08:06:00;21.92;;;11.77;;
42030;SDS011;27709;52.036;5.906;2022-11-20T08:08:26;23.15;;;11.57;;
42030;SDS011;27709;52.036;5.906;2022-11-20T08:10:52;24.13;;;12.88;;
42030;SDS011;27709;52.036;5.906;2022-11-20T08:13:38;25.85;;;12.93;;
42030;SDS011;27709;52.036;5.906;2022-11-20T08:16:22;23.38;;;12.35;;
42030;SDS011;27709;52.036;5.906;2022-11-20T08:18:47;22.65;;;13.13;;
42030;SDS011;27709;52.036;5.906;2022-11-20T08:21:13;23.95;;;13.52;;
42030;SDS011;27709;52.036;5.906;2022-11-20T08:23:38;25.02;;;12.60;;
42030;SDS011;27709;52.036;5.906;2022-11-20T08:26:04;25.05;;;12.65;;
42030;SDS011;27709;52.036;5.906;2022-11-20T08:28:29;25.05;;;13.13;;
42030;SDS011;27709;52.036;5.906;2022-11-20T08:30:59;25.00;;;14.20;;
42030;SDS011;27709;52.036;5.906;2022-11-20T08:33:25;25.83;;;14.32;;
42030;SDS011;27709;52.036;5.906;2022-11-20T08:35:51;27.95;;;14.90;;
42030;SDS011;27709;52.036;5.906;2022-11-20T08:38:16;30.58;;;15.18;;
42030;SDS011;27709;52.036;5.906;2022-11-20T08:40:42;31.98;;;17.15;;
42030;SDS011;27709;52.036;5.906;2022-11-20T08:43:28;31.58;;;15.93;;
42030;SDS011;27709;52.036;5.906;2022-11-20T08:45:53;31.65;;;16.85;;
42030;SDS011;27709;52.036;5.906;2022-11-20T08:48:21;30.45;;;16.73;;
42030;SDS011;27709;52.036;5.906;2022-11-20T08:50:47;29.50;;;17.17;;
42030;SDS011;27709;52.036;5.906;2022-11-20T08:53:12;30.40;;;16.08;;
42030;SDS011;27709;52.036;5.906;2022-11-20T08:55:38;29.75;;;16.95;;
42030;SDS011;27709;52.036;5.906;2022-11-20T08:58:04;30.13;;;16.67;;
42030;SDS011;27709;52.036;5.906;2022-11-20T09:00:33;28.70;;;15.95;;
42030;SDS011;27709;52.036;5.906;2022-11-20T09:02:59;30.00;;;16.77;;
42030;SDS011;27709;52.036;5.906;2022-11-20T09:05:26;33.92;;;16.88;;
42030;SDS011;27709;52.036;5.906;2022-11-20T09:07:55;32.10;;;17.02;;
42030;SDS011;27709;52.036;5.906;2022-11-20T09:10:21;32.95;;;18.20;;
42030;SDS011;27709;52.036;5.906;2022-11-20T09:12:50;31.38;;;17.33;;
42030;SDS011;27709;52.036;5.906;2022-11-20T09:15:20;29.63;;;17.25;;
42030;SDS011;27709;52.036;5.906;2022-11-20T09:17:55;30.48;;;17.00;;
42030;SDS011;27709;52.036;5.906;2022-11-20T09:20:26;28.83;;;16.63;;
42030;SDS011;27709;52.036;5.906;2022-11-20T09:22:53;32.15;;;17.08;;
42030;SDS011;27709;52.036;5.906;2022-11-20T09:25:19;33.08;;;18.10;;
42030;SDS011;27709;52.036;5.906;2022-11-20T09:27:45;32.97;;;17.98;;
42030;SDS011;27709;52.036;5.906;2022-11-20T09:30:12;29.80;;;16.85;;
42030;SDS011;27709;52.036;5.906;2022-11-20T09:32:44;33.38;;;18.58;;
42030;SDS011;27709;52.036;5.906;2022-11-20T09:35:11;34.42;;;18.30;;
42030;SDS011;27709;52.036;5.906;2022-11-20T09:37:36;34.95;;;17.63;;
42030;SDS011;27709;52.036;5.906;2022-11-20T09:40:02;31.17;;;16.17;;
42030;SDS011;27709;52.036;5.906;2022-11-20T09:45:18;33.78;;;17.52;;
42030;SDS011;27709;52.036;5.906;2022-11-20T09:48:10;36.00;;;19.30;;
42030;SDS011;27709;52.036;5.906;2022-11-20T09:50:47;33.80;;;18.27;;
42030;SDS011;27709;52.036;5.906;2022-11-20T09:53:30;31.13;;;17.17;;
42030;SDS011;27709;52.036;5.906;2022-11-20T09:56:16;32.83;;;17.35;;
42030;SDS011;27709;52.036;5.906;2022-11-20T09:58:47;33.20;;;17.70;;
42030;SDS011;27709;52.036;5.906;2022-11-20T10:01:20;33.40;;;17.30;;
42030;SDS011;27709;52.036;5.906;2022-11-20T10:03:57;34.60;;;19.40;;
42030;SDS011;27709;52.036;5.906;2022-11-20T10:09:29;34.95;;;18.85;;
42030;SDS011;27709;52.036;5.906;2022-11-20T10:14:52;30.73;;;16.92;;
42030;SDS011;27709;52.036;5.906;2022-11-20T10:20:19;35.60;;;18.60;;
42030;SDS011;27709;52.036;5.906;2022-11-20T10:22:58;37.70;;;19.35;;
42030;SDS011;27709;52.036;5.906;2022-11-20T10:25:54;36.10;;;18.65;;
42030;SDS011;27709;52.036;5.906;2022-11-20T10:31:08;33.38;;;18.30;;
42030;SDS011;27709;52.036;5.906;2022-11-20T10:33:40;33.92;;;18.67;;
42030;SDS011;27709;52.036;5.906;2022-11-20T10:38:55;38.60;;;19.33;;
42030;SDS011;27709;52.036;5.906;2022-11-20T10:41:30;34.88;;;18.83;;
42030;SDS011;27709;52.036;5.906;2022-11-20T10:44:16;33.58;;;18.23;;
42030;SDS011;27709;52.036;5.906;2022-11-20T10:47:21;35.25;;;17.88;;
42030;SDS011;27709;52.036;5.906;2022-11-20T10:49:52;33.78;;;19.23;;
42030;SDS011;27709;52.036;5.906;2022-11-20T10:52:30;35.75;;;19.05;;
42030;SDS011;27709;52.036;5.906;2022-11-20T11:00:25;32.30;;;18.73;;
42030;SDS011;27709;52.036;5.906;2022-11-20T11:02:51;32.40;;;17.83;;
42030;SDS011;27709;52.036;5.906;2022-11-20T11:08:14;31.90;;;17.98;;
42030;SDS011;27709;52.036;5.906;2022-11-20T11:10:48;30.13;;;17.10;;
42030;SDS011;27709;52.036;5.906;2022-11-20T11:13:19;31.33;;;17.15;;
42030;SDS011;27709;52.036;5.906;2022-11-20T11:15:45;32.67;;;18.20;;
42030;SDS011;27709;52.036;5.906;2022-11-20T11:18:11;32.22;;;17.08;;
42030;SDS011;27709;52.036;5.906;2022-11-20T11:20:55;28.48;;;17.00;;
42030;SDS011;27709;52.036;5.906;2022-11-20T11:23:26;34.08;;;18.02;;
42030;SDS011;27709;52.036;5.906;2022-11-20T11:26:01;31.42;;;16.75;;
42030;SDS011;27709;52.036;5.906;2022-11-20T11:28:29;31.48;;;17.17;;
42030;SDS011;27709;52.036;5.906;2022-11-20T11:30:55;36.70;;;21.45;;
42030;SDS011;27709;52.036;5.906;2022-11-20T11:33:21;36.67;;;19.17;;
42030;SDS011;27709;52.036;5.906;2022-11-20T11:35:53;37.40;;;20.25;;
42030;SDS011;27709;52.036;5.906;2022-11-20T11:38:34;33.97;;;17.42;;
42030;SDS011;27709;52.036;5.906;2022-11-20T11:41:06;29.98;;;17.52;;
42030;SDS011;27709;52.036;5.906;2022-11-20T11:43:35;27.63;;;17.25;;
42030;SDS011;27709;52.036;5.906;2022-11-20T11:51:38;31.27;;;18.85;;
42030;SDS011;27709;52.036;5.906;2022-11-20T11:54:16;29.33;;;17.80;;
42030;SDS011;27709;52.036;5.906;2022-11-20T11:59:23;28.15;;;16.15;;
42030;SDS011;27709;52.036;5.906;2022-11-20T12:02:03;29.05;;;16.70;;
42030;SDS011;27709;52.036;5.906;2022-11-20T12:04:44;29.33;;;16.48;;
42030;SDS011;27709;52.036;5.906;2022-11-20T12:07:19;28.20;;;16.45;;
42030;SDS011;27709;52.036;5.906;2022-11-20T12:09:55;27.98;;;16.90;;
42030;SDS011;27709;52.036;5.906;2022-11-20T12:12:24;28.25;;;17.10;;
42030;SDS011;27709;52.036;5.906;2022-11-20T12:14:55;25.67;;;15.63;;
42030;SDS011;27709;52.036;5.906;2022-11-20T12:17:23;30.33;;;19.05;;
42030;SDS011;27709;52.036;5.906;2022-11-20T12:19:49;30.45;;;16.95;;
42030;SDS011;27709;52.036;5.906;2022-11-20T12:25:37;29.20;;;17.50;;
42030;SDS011;27709;52.036;5.906;2022-11-20T12:30:28;36.47;;;21.58;;
42030;SDS011;27709;52.036;5.906;2022-11-20T12:41:04;35.58;;;20.48;;
42030;SDS011;27709;52.036;5.906;2022-11-20T12:55:12;33.35;;;20.15;;
42030;SDS011;27709;52.036;5.906;2022-11-20T13:00:32;34.92;;;20.58;;
42030;SDS011;27709;52.036;5.906;2022-11-20T13:03:06;33.13;;;20.65;;
42030;SDS011;27709;52.036;5.906;2022-11-20T13:08:40;34.63;;;20.95;;
42030;SDS011;27709;52.036;5.906;2022-11-20T13:11:14;37.35;;;20.90;;
42030;SDS011;27709;52.036;5.906;2022-11-20T13:16:30;32.53;;;18.58;;
42030;SDS011;27709;52.036;5.906;2022-11-20T13:19:22;33.95;;;19.88;;
42030;SDS011;27709;52.036;5.906;2022-11-20T13:21:48;33.05;;;19.95;;
42030;SDS011;27709;52.036;5.906;2022-11-20T13:26:43;46.65;;;27.60;;
42030;SDS011;27709;52.036;5.906;2022-11-20T13:29:11;45.05;;;27.30;;
42030;SDS011;27709;52.036;5.906;2022-11-20T13:31:43;49.65;;;28.30;;
42030;SDS011;27709;52.036;5.906;2022-11-20T13:34:23;40.72;;;23.75;;
42030;SDS011;27709;52.036;5.906;2022-11-20T13:36:56;46.97;;;26.70;;
42030;SDS011;27709;52.036;5.906;2022-11-20T13:41:56;51.45;;;29.77;;
42030;SDS011;27709;52.036;5.906;2022-11-20T13:44:46;43.63;;;24.33;;
42030;SDS011;27709;52.036;5.906;2022-11-20T13:47:28;39.92;;;22.33;;
42030;SDS011;27709;52.036;5.906;2022-11-20T13:49:57;40.97;;;22.73;;
42030;SDS011;27709;52.036;5.906;2022-11-20T14:03:38;42.75;;;22.50;;
42030;SDS011;27709;52.036;5.906;2022-11-20T14:06:04;36.65;;;20.95;;
42030;SDS011;27709;52.036;5.906;2022-11-20T14:08:39;45.20;;;23.05;;
42030;SDS011;27709;52.036;5.906;2022-11-20T14:11:19;44.97;;;23.55;;
42030;SDS011;27709;52.036;5.906;2022-11-20T14:16:25;45.83;;;23.52;;
42030;SDS011;27709;52.036;5.906;2022-11-20T14:18:53;43.88;;;23.52;;
42030;SDS011;27709;52.036;5.906;2022-11-20T14:21:23;58.17;;;30.75;;
42030;SDS011;27709;52.036;5.906;2022-11-20T14:24:02;55.30;;;28.38;;
42030;SDS011;27709;52.036;5.906;2022-11-20T14:26:42;46.30;;;24.42;;
42030;SDS011;27709;52.036;5.906;2022-11-20T14:29:13;47.72;;;25.05;;
42030;SDS011;27709;52.036;5.906;2022-11-20T14:31:40;52.90;;;28.02;;
42030;SDS011;27709;52.036;5.906;2022-11-20T14:34:15;48.38;;;25.45;;
42030;SDS011;27709;52.036;5.906;2022-11-20T14:36:43;68.85;;;36.25;;
42030;SDS011;27709;52.036;5.906;2022-11-20T14:39:11;52.60;;;27.38;;
42030;SDS011;27709;52.036;5.906;2022-11-20T14:41:51;47.25;;;26.15;;
42030;SDS011;27709;52.036;5.906;2022-11-20T14:44:25;44.67;;;24.70;;
42030;SDS011;27709;52.036;5.906;2022-11-20T14:46:57;50.20;;;25.80;;
42030;SDS011;27709;52.036;5.906;2022-11-20T14:49:25;52.95;;;26.25;;
42030;SDS011;27709;52.036;5.906;2022-11-20T14:51:58;55.33;;;29.00;;
42030;SDS011;27709;52.036;5.906;2022-11-20T14:54:25;65.80;;;33.03;;
42030;SDS011;27709;52.036;5.906;2022-11-20T14:56:56;65.38;;;35.67;;
42030;SDS011;27709;52.036;5.906;2022-11-20T14:59:31;60.72;;;30.80;;
42030;SDS011;27709;52.036;5.906;2022-11-20T15:01:59;77.85;;;38.47;;
42030;SDS011;27709;52.036;5.906;2022-11-20T15:04:30;67.68;;;34.72;;
42030;SDS011;27709;52.036;5.906;2022-11-20T15:06:57;79.97;;;41.42;;
42030;SDS011;27709;52.036;5.906;2022-11-20T15:09:24;71.57;;;36.15;;
42030;SDS011;27709;52.036;5.906;2022-11-20T15:11:59;85.45;;;40.83;;
42030;SDS011;27709;52.036;5.906;2022-11-20T15:14:27;62.50;;;32.47;;
42030;SDS011;27709;52.036;5.906;2022-11-20T15:16:54;64.47;;;32.40;;
42030;SDS011;27709;52.036;5.906;2022-11-20T15:19:21;78.90;;;37.47;;
42030;SDS011;27709;52.036;5.906;2022-11-20T15:21:51;89.88;;;43.47;;
42030;SDS011;27709;52.036;5.906;2022-11-20T15:24:16;76.57;;;37.13;;
42030;SDS011;27709;52.036;5.906;2022-11-20T15:26:42;58.47;;;28.45;;
42030;SDS011;27709;52.036;5.906;2022-11-20T15:29:12;56.00;;;29.80;;
42030;SDS011;27709;52.036;5.906;2022-11-20T15:31:43;71.03;;;34.47;;
42030;SDS011;27709;52.036;5.906;2022-11-20T15:34:13;65.13;;;33.38;;
42030;SDS011;27709;52.036;5.906;2022-11-20T15:36:40;79.38;;;38.90;;
42030;SDS011;27709;52.036;5.906;2022-11-20T15:39:07;60.03;;;29.60;;
42030;SDS011;27709;52.036;5.906;2022-11-20T15:41:36;58.65;;;29.23;;
42030;SDS011;27709;52.036;5.906;2022-11-20T15:44:03;59.90;;;29.58;;
42030;SDS011;27709;52.036;5.906;2022-11-20T15:46:30;70.90;;;34.65;;
42030;SDS011;27709;52.036;5.906;2022-11-20T15:49:02;67.00;;;33.22;;
42030;SDS011;27709;52.036;5.906;2022-11-20T15:51:29;72.20;;;35.88;;
42030;SDS011;27709;52.036;5.906;2022-11-20T15:53:57;58.38;;;29.85;;
42030;SDS011;27709;52.036;5.906;2022-11-20T15:56:23;58.78;;;28.90;;
42030;SDS011;27709;52.036;5.906;2022-11-20T15:58:49;60.00;;;30.08;;
42030;SDS011;27709;52.036;5.906;2022-11-20T16:01:15;57.22;;;29.05;;
42030;SDS011;27709;52.036;5.906;2022-11-20T16:03:43;68.22;;;34.22;;
42030;SDS011;27709;52.036;5.906;2022-11-20T16:06:08;59.20;;;29.92;;
42030;SDS011;27709;52.036;5.906;2022-11-20T16:08:34;62.25;;;30.70;;
42030;SDS011;27709;52.036;5.906;2022-11-20T16:11:00;84.63;;;41.25;;
42030;SDS011;27709;52.036;5.906;2022-11-20T16:13:25;59.30;;;29.88;;
42030;SDS011;27709;52.036;5.906;2022-11-20T16:16:51;69.82;;;34.45;;